Rolling Fork, Mississippi
Current Conditions -  °F | °C
As of 6:53 PM on Friday 28 Nov 2014 (Local Time) from KTVR Reporting Station
Clear Clear  
Wind Chill: 45°   Ceiling: Unl
Heat Index: 49°   Visibility: 10mi
Dew Point: 32°   Wind: 8mph
Humidity: 52%   Direction: 160°SSE
Pressure: 30.22"   Gusts: NA
Location:  32.91°N, 90.88°W
Report Text: KTVR 290053Z AUTO 16007KT 10SM CLR 09/00 A3022 RMK AO2 SLP239 T00940000
Loading
Personal Weather Stations






























Interactive Weather Map New forecast layout! Learn more

10-Day Weather Forecast

Advertisements
Track Severe Weather on mobile